createdAt,value
2023-02-22T00:01:47.373Z,100.00
2023-02-22T00:04:15.904Z,100.00
2023-02-22T00:06:42.346Z,100.00
2023-02-22T00:09:09.494Z,100.00
2023-02-22T00:11:35.929Z,100.00
2023-02-22T00:14:03.102Z,100.00
2023-02-22T00:16:31.031Z,100.00
2023-02-22T00:18:57.591Z,100.00
2023-02-22T00:21:23.995Z,100.00
2023-02-22T00:23:50.489Z,100.00
2023-02-22T00:26:20.259Z,100.00
2023-02-22T00:28:49.054Z,100.00
2023-02-22T00:31:16.232Z,100.00
2023-02-22T00:33:43.005Z,100.00
2023-02-22T00:36:11.773Z,100.00
2023-02-22T00:38:38.427Z,100.00
2023-02-22T00:41:05.552Z,100.00
2023-02-22T00:43:32.006Z,100.00
2023-02-22T00:45:58.756Z,100.00
2023-02-22T00:48:25.474Z,100.00
2023-02-22T00:50:55.401Z,100.00
2023-02-22T00:53:23.988Z,100.00
2023-02-22T00:55:51.415Z,100.00
2023-02-22T00:58:18.612Z,100.00
2023-02-22T01:00:45.802Z,100.00
2023-02-22T01:03:15.755Z,100.00
2023-02-22T01:05:43.007Z,100.00
2023-02-22T01:08:12.264Z,100.00
2023-02-22T01:10:39.496Z,100.00
2023-02-22T01:13:09.025Z,100.00
2023-02-22T01:15:37.323Z,100.00
2023-02-22T01:18:05.194Z,100.00
2023-02-22T01:20:32.406Z,100.00
2023-02-22T01:23:00.464Z,100.00
2023-02-22T01:25:30.746Z,100.00
2023-02-22T01:27:58.702Z,100.00
2023-02-22T01:30:30.822Z,100.00
2023-02-22T01:32:58.471Z,100.00
2023-02-22T01:35:31.372Z,100.00
2023-02-22T01:37:58.712Z,100.00
2023-02-22T01:40:29.633Z,100.00
2023-02-22T01:42:58.955Z,100.00
2023-02-22T01:45:32.818Z,100.00
2023-02-22T01:48:22.739Z,100.00
2023-02-22T01:51:10.611Z,100.00
2023-02-22T01:53:43.312Z,100.00
2023-02-22T01:56:10.741Z,100.00
2023-02-22T01:58:41.236Z,100.00
2023-02-22T02:01:09.423Z,100.00
2023-02-22T02:03:38.498Z,100.00
2023-02-22T02:06:11.816Z,100.00
2023-02-22T02:09:05.627Z,100.00
2023-02-22T02:11:32.713Z,100.00
2023-02-22T02:14:00.065Z,100.00
2023-02-22T02:16:36.697Z,100.00
2023-02-22T02:19:08.142Z,100.00
2023-02-22T02:22:19.481Z,100.00
2023-02-22T02:25:17.931Z,100.00
2023-02-22T02:28:04.997Z,100.00
2023-02-22T02:30:43.459Z,100.00
2023-02-22T02:33:22.300Z,100.00
2023-02-22T02:36:03.824Z,100.00
2023-02-22T02:38:32.970Z,100.00
2023-02-22T02:41:13.459Z,100.00
2023-02-22T02:43:53.490Z,100.00
2023-02-22T02:46:44.080Z,100.00
2023-02-22T02:49:15.098Z,100.00
2023-02-22T02:51:47.214Z,100.00
2023-02-22T02:54:15.052Z,100.00
2023-02-22T02:56:42.883Z,100.00
2023-02-22T02:59:44.972Z,100.00
2023-02-22T03:02:46.242Z,100.00
2023-02-22T03:05:31.847Z,100.00
2023-02-22T03:08:17.921Z,100.00
2023-02-22T03:10:58.026Z,100.00
2023-02-22T03:13:59.369Z,100.00
2023-02-22T03:16:56.884Z,100.00
2023-02-22T03:19:37.049Z,100.00
2023-02-22T03:22:27.815Z,100.00
2023-02-22T03:25:14.000Z,100.00
2023-02-22T03:27:46.343Z,100.00
2023-02-22T03:30:25.750Z,100.00
2023-02-22T03:33:23.236Z,100.00
2023-02-22T03:35:56.812Z,100.00
2023-02-22T03:38:26.659Z,100.00
2023-02-22T03:40:59.241Z,100.00
2023-02-22T03:43:34.559Z,100.00
2023-02-22T03:46:04.065Z,100.00
2023-02-22T03:48:54.323Z,100.00
2023-02-22T03:51:22.693Z,100.00
2023-02-22T03:53:54.420Z,100.00
2023-02-22T03:56:35.775Z,100.00
2023-02-22T03:59:05.628Z,100.00
2023-02-22T04:01:32.335Z,100.00
2023-02-22T04:04:00.343Z,100.00
2023-02-22T04:06:27.924Z,100.00
2023-02-22T04:08:56.198Z,100.00
2023-02-22T04:11:22.648Z,100.00
2023-02-22T04:13:49.629Z,100.00
2023-02-22T04:16:16.376Z,100.00
2023-02-22T04:18:43.123Z,100.00
2023-02-22T04:21:11.869Z,100.00
2023-02-22T04:23:42.890Z,100.00
2023-02-22T04:26:11.511Z,100.00
2023-02-22T04:28:38.512Z,100.00
2023-02-22T04:31:09.980Z,100.00
2023-02-22T04:33:37.364Z,100.00
2023-02-22T04:36:04.404Z,100.00
2023-02-22T04:38:33.686Z,100.00
2023-02-22T04:41:00.874Z,100.00
2023-02-22T04:43:27.723Z,100.00
2023-02-22T04:46:02.157Z,100.00
2023-02-22T04:48:28.906Z,100.00
2023-02-22T04:50:55.483Z,100.00
2023-02-22T04:53:23.331Z,100.00
2023-02-22T04:55:49.988Z,100.00
2023-02-22T04:58:17.240Z,100.00
2023-02-22T05:00:43.834Z,100.00
2023-02-22T05:03:10.346Z,100.00
2023-02-22T05:05:36.787Z,100.00
2023-02-22T05:08:03.246Z,100.00
2023-02-22T05:10:29.790Z,100.00
2023-02-22T05:12:56.680Z,100.00
2023-02-22T05:15:25.285Z,100.00
2023-02-22T05:17:53.379Z,100.00
2023-02-22T05:20:27.892Z,100.00
2023-02-22T05:22:55.552Z,100.00
2023-02-22T05:25:22.136Z,100.00
2023-02-22T05:28:00.892Z,100.00
2023-02-22T05:30:34.560Z,100.00
2023-02-22T05:33:01.900Z,100.00
2023-02-22T05:35:29.176Z,100.00
2023-02-22T05:37:56.452Z,100.00
2023-02-22T05:40:26.304Z,100.00
2023-02-22T05:42:53.571Z,100.00
2023-02-22T05:45:22.089Z,100.00
2023-02-22T05:47:49.973Z,100.00
2023-02-22T05:50:18.048Z,100.00
2023-02-22T05:52:44.425Z,100.00
2023-02-22T05:55:13.851Z,100.00
2023-02-22T05:57:40.422Z,100.00
2023-02-22T06:00:08.215Z,100.00
2023-02-22T06:02:40.459Z,100.00
2023-02-22T06:05:07.371Z,100.00
2023-02-22T06:07:34.364Z,100.00
2023-02-22T06:10:00.801Z,100.00
2023-02-22T06:12:27.961Z,100.00
2023-02-22T06:14:54.516Z,100.00
2023-02-22T06:17:20.940Z,100.00
2023-02-22T06:19:47.473Z,100.00
2023-02-22T06:22:18.691Z,100.00
2023-02-22T06:24:45.399Z,100.00
2023-02-22T06:27:11.845Z,100.00
2023-02-22T06:29:38.369Z,100.00
2023-02-22T06:32:05.347Z,100.00
2023-02-22T06:34:32.234Z,100.00
2023-02-22T06:37:00.055Z,100.00
2023-02-22T06:39:28.866Z,100.00
2023-02-22T06:41:57.821Z,100.00
2023-02-22T06:44:24.301Z,100.00
2023-02-22T06:46:51.682Z,100.00
2023-02-22T06:49:20.132Z,100.00
2023-02-22T06:51:47.430Z,100.00
2023-02-22T06:54:14.676Z,100.00
2023-02-22T06:56:41.058Z,100.00
2023-02-22T06:59:08.365Z,100.00
2023-02-22T07:01:35.023Z,100.00
2023-02-22T07:04:03.930Z,100.00
2023-02-22T07:06:30.462Z,100.00
2023-02-22T07:08:57.002Z,100.00
2023-02-22T07:11:23.468Z,100.00
2023-02-22T07:13:50.561Z,100.00
2023-02-22T07:16:17.070Z,100.00
2023-02-22T07:18:43.636Z,100.00
2023-02-22T07:21:10.676Z,100.00
2023-02-22T07:23:37.103Z,100.00
2023-02-22T07:26:05.443Z,100.00
2023-02-22T07:28:32.040Z,100.00
2023-02-22T07:30:59.122Z,100.00
2023-02-22T07:33:26.891Z,100.00
2023-02-22T07:35:53.653Z,100.00
2023-02-22T07:38:20.951Z,100.00
2023-02-22T07:40:47.672Z,100.00
2023-02-22T07:43:20.360Z,100.00
2023-02-22T07:45:48.756Z,100.00
2023-02-22T07:48:17.627Z,100.00
2023-02-22T07:50:44.547Z,100.00
2023-02-22T07:53:18.052Z,100.00
2023-02-22T07:55:44.584Z,100.00
2023-02-22T07:58:15.228Z,100.00
2023-02-22T08:00:43.958Z,100.00
2023-02-22T08:03:12.981Z,100.00
2023-02-22T08:05:44.784Z,100.00
2023-02-22T08:08:11.332Z,100.00
2023-02-22T08:10:37.957Z,100.00
2023-02-22T08:13:05.709Z,100.00
2023-02-22T08:15:34.867Z,100.00
2023-02-22T08:18:03.882Z,100.00
2023-02-22T08:20:31.196Z,100.00
2023-02-22T08:22:58.307Z,100.00
2023-02-22T08:25:27.147Z,100.00
2023-02-22T08:27:59.923Z,100.00
2023-02-22T08:30:28.026Z,100.00
2023-02-22T08:32:54.846Z,100.00
2023-02-22T08:35:22.394Z,100.00
2023-02-22T08:37:54.932Z,100.00
2023-02-22T08:40:24.065Z,100.00
2023-02-22T08:42:50.748Z,100.00
2023-02-22T08:45:18.017Z,100.00
2023-02-22T08:47:44.610Z,100.00
2023-02-22T08:50:21.971Z,100.00
2023-02-22T08:52:51.347Z,100.00
2023-02-22T08:55:25.127Z,100.00
2023-02-22T08:57:51.828Z,100.00
2023-02-22T09:00:20.644Z,100.00
2023-02-22T09:02:47.089Z,100.00
2023-02-22T09:05:13.560Z,100.00
2023-02-22T09:07:44.389Z,100.00
2023-02-22T09:10:15.431Z,100.00
2023-02-22T09:12:42.664Z,100.00
2023-02-22T09:15:09.699Z,100.00
2023-02-22T09:17:37.379Z,100.00
2023-02-22T09:20:05.969Z,100.00
2023-02-22T09:22:32.418Z,100.00
2023-02-22T09:25:02.623Z,100.00
2023-02-22T09:27:34.484Z,100.00
2023-02-22T09:30:01.027Z,100.00
2023-02-22T09:32:28.138Z,100.00
2023-02-22T09:34:55.640Z,100.00
2023-02-22T09:37:22.567Z,100.00
2023-02-22T09:39:49.213Z,100.00
2023-02-22T09:42:42.389Z,100.00
2023-02-22T09:45:22.660Z,100.00
2023-02-22T09:48:20.937Z,100.00
2023-02-22T09:50:52.380Z,100.00
2023-02-22T09:53:30.849Z,100.00
2023-02-22T09:56:06.957Z,99.97
2023-02-22T09:58:40.223Z,98.99
2023-02-22T10:01:29.333Z,99.45
2023-02-22T10:04:19.088Z,99.32
2023-02-22T10:07:08.790Z,97.82
2023-02-22T10:09:42.473Z,97.63
2023-02-22T10:12:34.003Z,97.01
2023-02-22T10:15:34.617Z,95.57
2023-02-22T10:18:28.686Z,94.34
2023-02-22T10:21:21.810Z,93.92
2023-02-22T10:24:10.479Z,93.50
2023-02-22T10:26:41.923Z,93.29
2023-02-22T10:29:25.319Z,91.70
2023-02-22T10:31:57.587Z,92.16
2023-02-22T10:34:28.192Z,93.33
2023-02-22T10:37:03.350Z,92.05
2023-02-22T10:39:39.607Z,91.69
2023-02-22T10:42:09.116Z,92.20
2023-02-22T10:44:37.597Z,90.38
2023-02-22T10:47:07.632Z,90.22
2023-02-22T10:49:43.943Z,89.50
2023-02-22T10:52:31.047Z,90.23
2023-02-22T10:55:14.007Z,89.37
2023-02-22T10:57:44.217Z,89.04
2023-02-22T11:00:31.138Z,88.85
2023-02-22T11:03:03.648Z,88.91
2023-02-22T11:05:30.333Z,88.10
2023-02-22T11:08:15.581Z,88.04
2023-02-22T11:10:43.333Z,87.58
2023-02-22T11:13:31.035Z,87.47
2023-02-22T11:16:17.028Z,87.80
2023-02-22T11:18:46.968Z,86.17
2023-02-22T11:21:22.687Z,87.08
2023-02-22T11:23:50.352Z,86.59
2023-02-22T11:26:20.560Z,86.04
2023-02-22T11:28:50.580Z,85.93
2023-02-22T11:31:24.127Z,84.77
2023-02-22T11:36:40.819Z,84.24
2023-02-22T11:39:21.617Z,83.09
2023-02-22T11:41:51.069Z,82.42
2023-02-22T11:44:30.639Z,83.22
2023-02-22T11:47:06.727Z,82.71
2023-02-22T11:49:36.741Z,83.45
2023-02-22T11:52:10.381Z,82.96
2023-02-22T11:55:00.658Z,81.79
2023-02-22T11:57:46.770Z,81.38
2023-02-22T12:00:35.991Z,81.21
2023-02-22T12:03:28.934Z,81.54
2023-02-22T12:06:07.006Z,81.53
2023-02-22T12:08:43.168Z,81.64
2023-02-22T12:11:39.776Z,81.34
2023-02-22T12:14:38.780Z,81.03
2023-02-22T12:17:23.463Z,81.95
2023-02-22T12:19:54.783Z,81.23
2023-02-22T12:22:27.270Z,82.16
2023-02-22T12:25:20.163Z,81.83
2023-02-22T12:27:51.947Z,81.62
2023-02-22T12:30:28.858Z,81.22
2023-02-22T12:32:59.615Z,81.53
2023-02-22T12:35:35.965Z,81.60
2023-02-22T12:38:13.479Z,82.43
2023-02-22T12:40:54.415Z,82.83
2023-02-22T12:43:28.585Z,83.15
2023-02-22T12:46:13.876Z,82.77
2023-02-22T12:48:45.880Z,82.13
2023-02-22T12:51:15.903Z,82.06
2023-02-22T12:53:49.405Z,81.86
2023-02-22T12:56:45.307Z,82.42
2023-02-22T12:59:35.097Z,82.12
2023-02-22T13:02:15.327Z,80.92
2023-02-22T13:04:41.822Z,81.32
2023-02-22T13:07:17.483Z,79.26
2023-02-22T13:10:03.003Z,80.06
2023-02-22T13:12:52.635Z,79.23
2023-02-22T13:15:28.114Z,79.16
2023-02-22T13:18:01.486Z,79.25
2023-02-22T13:20:41.338Z,79.97
2023-02-22T13:23:25.874Z,78.73
2023-02-22T13:26:10.794Z,79.40
2023-02-22T13:28:44.641Z,78.96
2023-02-22T13:31:30.113Z,77.69
2023-02-22T13:34:02.820Z,78.19
2023-02-22T13:37:02.625Z,77.92
2023-02-22T13:39:39.241Z,78.31
2023-02-22T13:42:49.029Z,78.40
2023-02-22T13:45:46.714Z,76.99
2023-02-22T13:48:24.412Z,77.68
2023-02-22T13:51:06.584Z,77.16
2023-02-22T13:53:43.861Z,76.17
2023-02-22T13:56:11.720Z,77.35
2023-02-22T13:58:58.081Z,76.78
2023-02-22T14:01:43.254Z,76.55
2023-02-22T14:04:30.000Z,76.63
2023-02-22T14:07:22.515Z,76.82
2023-02-22T14:09:50.587Z,76.70
2023-02-22T14:12:29.223Z,76.07
2023-02-22T14:15:28.737Z,76.44
2023-02-22T14:18:07.281Z,76.53
2023-02-22T14:20:36.562Z,76.13
2023-02-22T14:23:30.064Z,76.15
2023-02-22T14:26:09.121Z,75.76
2023-02-22T14:28:41.285Z,75.26
2023-02-22T14:31:29.467Z,75.19
2023-02-22T14:34:08.294Z,74.72
2023-02-22T14:36:56.164Z,75.03
2023-02-22T14:39:38.238Z,76.11
2023-02-22T14:42:18.015Z,75.93
2023-02-22T14:44:56.568Z,76.24
2023-02-22T14:47:29.589Z,76.37
2023-02-22T14:50:08.823Z,76.24
2023-02-22T14:52:38.145Z,75.31
2023-02-22T14:55:19.869Z,75.66
2023-02-22T14:57:59.114Z,75.82
2023-02-22T15:00:59.860Z,75.49
2023-02-22T15:03:37.809Z,75.91
2023-02-22T15:06:15.397Z,76.53
2023-02-22T15:08:48.531Z,76.61
2023-02-22T15:11:32.405Z,76.97
2023-02-22T15:14:01.109Z,76.52
2023-02-22T15:16:31.482Z,76.67
2023-02-22T15:19:00.935Z,77.57
2023-02-22T15:21:29.788Z,76.35
2023-02-22T15:23:59.880Z,77.48
2023-02-22T15:26:51.867Z,77.92
2023-02-22T15:29:35.186Z,76.78
2023-02-22T15:32:17.855Z,78.14
2023-02-22T15:34:44.382Z,78.27
2023-02-22T15:37:25.252Z,77.84
2023-02-22T15:39:59.752Z,77.89
2023-02-22T15:42:29.407Z,78.29
2023-02-22T15:44:56.655Z,78.93
2023-02-22T15:47:27.492Z,79.19
2023-02-22T15:50:26.954Z,80.64
2023-02-22T15:52:59.632Z,81.12
2023-02-22T15:55:38.183Z,81.31
2023-02-22T15:58:31.207Z,82.16
2023-02-22T16:01:04.033Z,82.39
2023-02-22T16:03:47.836Z,82.83
2023-02-22T16:06:38.522Z,82.64
2023-02-22T16:09:11.572Z,83.11
2023-02-22T16:11:43.719Z,82.63
2023-02-22T16:14:30.703Z,82.88
2023-02-22T16:17:28.738Z,83.16
2023-02-22T16:19:55.683Z,83.37
2023-02-22T16:22:33.872Z,83.73
2023-02-22T16:25:16.476Z,84.43
2023-02-22T16:27:48.471Z,84.64
2023-02-22T16:30:24.293Z,85.11
2023-02-22T16:32:52.603Z,85.59
2023-02-22T16:35:19.191Z,85.67
2023-02-22T16:37:46.707Z,85.77
2023-02-22T16:40:22.524Z,85.08
2023-02-22T16:42:50.233Z,85.36
2023-02-22T16:45:17.813Z,86.07
2023-02-22T16:47:45.209Z,86.38
2023-02-22T16:50:12.688Z,86.61
2023-02-22T16:52:40.405Z,86.92
2023-02-22T16:55:11.882Z,87.47
2023-02-22T16:57:39.522Z,87.32
2023-02-22T17:00:37.322Z,87.90
2023-02-22T17:03:05.405Z,88.23
2023-02-22T17:05:36.023Z,88.32
2023-02-22T17:08:05.310Z,88.61
2023-02-22T17:10:32.028Z,89.32
2023-02-22T17:13:05.222Z,89.39
2023-02-22T17:15:40.277Z,89.52
2023-02-22T17:18:16.177Z,90.09
2023-02-22T17:20:45.651Z,90.11
2023-02-22T17:23:12.951Z,90.29
2023-02-22T17:25:59.088Z,90.94
2023-02-22T17:28:26.801Z,91.17
2023-02-22T17:31:00.621Z,91.26
2023-02-22T17:33:29.861Z,91.81
2023-02-22T17:35:59.008Z,91.78
2023-02-22T17:38:28.891Z,91.89
2023-02-22T17:40:56.264Z,91.75
2023-02-22T17:43:23.911Z,91.97
2023-02-22T17:45:50.932Z,92.04
2023-02-22T17:48:18.467Z,92.39
2023-02-22T17:50:46.681Z,92.22
2023-02-22T17:53:13.635Z,92.11
2023-02-22T17:55:42.000Z,92.33
2023-02-22T17:58:14.416Z,92.60
2023-02-22T18:00:44.623Z,92.59
2023-02-22T18:03:21.079Z,92.83
2023-02-22T18:05:50.347Z,93.33
2023-02-22T18:08:16.976Z,93.30
2023-02-22T18:10:45.011Z,94.05
2023-02-22T18:13:19.608Z,93.93
2023-02-22T18:15:47.031Z,94.74
2023-02-22T18:18:17.651Z,94.71
2023-02-22T18:20:46.685Z,95.09
2023-02-22T18:23:16.079Z,95.86
2023-02-22T18:26:03.739Z,95.99
2023-02-22T18:28:35.486Z,95.91
2023-02-22T18:31:10.186Z,96.14
2023-02-22T18:33:36.780Z,97.37
2023-02-22T18:36:04.461Z,97.22
2023-02-22T18:38:31.171Z,96.75
2023-02-22T18:41:02.868Z,97.22
2023-02-22T18:43:31.688Z,97.14
2023-02-22T18:46:20.004Z,97.73
2023-02-22T18:48:48.473Z,97.66
2023-02-22T18:51:17.625Z,98.05
2023-02-22T18:53:47.579Z,98.52
2023-02-22T18:56:21.549Z,98.70
2023-02-22T18:58:52.610Z,98.90
2023-02-22T19:01:19.332Z,98.93
2023-02-22T19:03:49.598Z,99.14
2023-02-22T19:06:17.093Z,99.16
2023-02-22T19:08:45.717Z,99.26
2023-02-22T19:11:21.785Z,99.55
2023-02-22T19:13:53.744Z,100.00
2023-02-22T19:16:22.289Z,99.74
2023-02-22T19:18:50.759Z,100.00
2023-02-22T19:21:17.735Z,100.00
2023-02-22T19:23:48.210Z,100.00
2023-02-22T19:26:21.061Z,100.00
2023-02-22T19:28:48.729Z,100.00
2023-02-22T19:31:18.580Z,100.00
2023-02-22T19:33:47.477Z,100.00
2023-02-22T19:36:14.702Z,100.00
2023-02-22T19:38:41.678Z,100.00
2023-02-22T19:41:27.192Z,100.00
2023-02-22T19:43:55.936Z,100.00
2023-02-22T19:46:24.711Z,100.00
2023-02-22T19:48:52.525Z,100.00
2023-02-22T19:51:20.929Z,100.00
2023-02-22T19:53:48.049Z,100.00
2023-02-22T19:56:17.754Z,100.00
2023-02-22T19:58:50.751Z,100.00
2023-02-22T20:01:23.722Z,100.00
2023-02-22T20:03:54.770Z,100.00
2023-02-22T20:06:23.031Z,100.00
2023-02-22T20:08:50.935Z,100.00
2023-02-22T20:11:17.596Z,100.00
2023-02-22T20:13:45.338Z,100.00
2023-02-22T20:16:15.915Z,100.00
2023-02-22T20:18:43.996Z,100.00
2023-02-22T20:21:13.924Z,100.00
2023-02-22T20:23:44.102Z,100.00
2023-02-22T20:26:20.600Z,100.00
2023-02-22T20:28:48.436Z,100.00
2023-02-22T20:31:16.791Z,100.00
2023-02-22T20:33:45.732Z,100.00
2023-02-22T20:36:15.150Z,100.00
2023-02-22T20:38:41.866Z,100.00
2023-02-22T20:41:13.384Z,100.00
2023-02-22T20:43:40.032Z,100.00
2023-02-22T20:46:07.264Z,100.00
2023-02-22T20:48:34.233Z,100.00
2023-02-22T20:51:09.251Z,100.00
2023-02-22T20:53:39.238Z,100.00
2023-02-22T20:56:06.721Z,100.00
2023-02-22T20:58:33.185Z,100.00
2023-02-22T21:01:05.143Z,100.00
2023-02-22T21:03:35.626Z,100.00
2023-02-22T21:06:05.124Z,100.00
2023-02-22T21:08:32.865Z,100.00
2023-02-22T21:11:00.209Z,100.00
2023-02-22T21:13:27.637Z,100.00
2023-02-22T21:15:55.196Z,100.00
2023-02-22T21:18:24.711Z,100.00
2023-02-22T21:20:52.117Z,100.00
2023-02-22T21:23:18.535Z,100.00
2023-02-22T21:25:54.886Z,100.00
2023-02-22T21:28:21.400Z,100.00
2023-02-22T21:30:48.235Z,100.00
2023-02-22T21:33:17.721Z,100.00
2023-02-22T21:35:46.908Z,100.00
2023-02-22T21:38:17.760Z,100.00
2023-02-22T21:40:47.172Z,100.00
2023-02-22T21:43:13.641Z,100.00
2023-02-22T21:45:40.053Z,100.00
2023-02-22T21:48:06.655Z,100.00
2023-02-22T21:50:37.598Z,100.00
2023-02-22T21:53:05.505Z,100.00
2023-02-22T21:55:33.782Z,100.00
2023-02-22T21:58:00.361Z,100.00
2023-02-22T22:00:31.176Z,100.00
2023-02-22T22:03:12.268Z,100.00
2023-02-22T22:05:39.532Z,100.00
2023-02-22T22:08:13.148Z,100.00
2023-02-22T22:10:39.576Z,100.00
2023-02-22T22:13:08.963Z,100.00
2023-02-22T22:15:37.243Z,100.00
2023-02-22T22:18:06.522Z,100.00
2023-02-22T22:20:33.243Z,100.00
2023-02-22T22:23:00.063Z,100.00
2023-02-22T22:25:28.353Z,100.00
2023-02-22T22:27:56.101Z,100.00
2023-02-22T22:30:22.890Z,100.00
2023-02-22T22:32:49.464Z,100.00
2023-02-22T22:35:15.983Z,100.00
2023-02-22T22:37:43.028Z,100.00
2023-02-22T22:40:15.531Z,100.00
2023-02-22T22:42:42.600Z,100.00
2023-02-22T22:45:12.991Z,100.00
2023-02-22T22:47:45.881Z,100.00
2023-02-22T22:50:14.791Z,100.00
2023-02-22T22:52:41.713Z,100.00
2023-02-22T22:55:11.913Z,100.00
2023-02-22T22:57:39.806Z,100.00
2023-02-22T23:00:26.560Z,100.00
2023-02-22T23:02:56.278Z,100.00
2023-02-22T23:05:28.902Z,100.00
2023-02-22T23:07:56.472Z,100.00
2023-02-22T23:10:27.112Z,100.00
2023-02-22T23:13:21.140Z,100.00
2023-02-22T23:16:12.573Z,100.00
2023-02-22T23:18:43.001Z,100.00
2023-02-22T23:21:10.258Z,100.00
2023-02-22T23:23:37.961Z,100.00
2023-02-22T23:26:20.575Z,100.00
2023-02-22T23:28:48.486Z,100.00
2023-02-22T23:31:17.793Z,100.00
2023-02-22T23:33:48.173Z,100.00
2023-02-22T23:36:16.490Z,100.00
2023-02-22T23:38:43.473Z,100.00
2023-02-22T23:41:18.911Z,100.00
2023-02-22T23:43:45.864Z,100.00
2023-02-22T23:46:18.241Z,100.00
2023-02-22T23:48:52.196Z,100.00
2023-02-22T23:51:25.350Z,100.00
2023-02-22T23:53:55.658Z,100.00
2023-02-22T23:56:27.932Z,100.00
2023-02-22T23:58:57.109Z,100.00
